Time;durP1;ratioP1;P1;durP2;ratioP2;P2;SDS_P1;SDS_P2;PMS_P1;PMS_P2;Temp;Humidity;BMP_temperature;BMP_pressure;BME280_temperature;BME280_humidity;BME280_pressure;Samples;Min_cycle;Max_cycle;Signal;HPM_P1;HPM_P2
2024/01/02 00:00:26;;;;;;;7.60;3.50;;;;;;;;;;5068539;28;20221;-27
2024/01/02 00:05:32;;;;;;;5.47;2.97;;;;;;;;;;5070934;28;20312;-27
2024/01/02 00:08:07;;;;;;;5.67;2.93;;;;;;;;;;5074154;28;20227;-28
2024/01/02 00:10:38;;;;;;;4.73;2.90;;;;;;;;;;5073208;28;20216;-26
2024/01/02 00:13:10;;;;;;;5.73;3.17;;;;;;;;;;5068227;28;20198;-29
2024/01/02 00:15:38;;;;;;;5.73;2.93;;;;;;;;;;5070487;28;20233;-29
2024/01/02 00:18:12;;;;;;;7.07;3.27;;;;;;;;;;5061289;28;20267;-26
2024/01/02 00:20:50;;;;;;;6.43;2.43;;;;;;;;;;5072936;28;20289;-26
2024/01/02 00:23:21;;;;;;;5.93;3.43;;;;;;;;;;5072146;28;20304;-28
2024/01/02 00:25:54;;;;;;;4.27;2.20;;;;;;;;;;5073278;28;20304;-28
2024/01/02 00:28:25;;;;;;;5.50;2.00;;;;;;;;;;5071461;28;20205;-27
2024/01/02 00:30:57;;;;;;;6.20;2.20;;;;;;;;;;5068899;28;20205;-29
2024/01/02 00:33:25;;;;;;;5.00;2.23;;;;;;;;;;5072484;28;20251;-27
2024/01/02 00:38:27;;;;;;;6.63;2.97;;;;;;;;;;5045133;28;20222;-37
2024/01/02 00:41:00;;;;;;;4.87;2.90;;;;;;;;;;5053486;28;20623;-33
2024/01/02 00:43:33;;;;;;;8.60;3.47;;;;;;;;;;5060254;28;20229;-34
2024/01/02 00:46:06;;;;;;;5.53;3.27;;;;;;;;;;5041974;28;20321;-31
2024/01/02 00:48:35;;;;;;;5.57;3.07;;;;;;;;;;5046110;28;20203;-32
2024/01/02 00:51:04;;;;;;;6.07;2.93;;;;;;;;;;5048047;28;20214;-34
2024/01/02 00:53:37;;;;;;;7.97;2.97;;;;;;;;;;5051043;28;20205;-34
2024/01/02 00:56:11;;;;;;;6.27;2.90;;;;;;;;;;5052749;28;20225;-33
2024/01/02 00:58:43;;;;;;;3.23;2.27;;;;;;;;;;5049553;28;20257;-35
2024/01/02 01:01:13;;;;;;;6.83;2.87;;;;;;;;;;5054542;28;20660;-34
2024/01/02 01:03:42;;;;;;;4.57;2.93;;;;;;;;;;5052103;28;20291;-37
2024/01/02 01:06:19;;;;;;;5.63;2.87;;;;;;;;;;5049825;28;20232;-32
2024/01/02 01:08:50;;;;;;;6.50;2.80;;;;;;;;;;5047806;28;20213;-31
2024/01/02 01:11:21;;;;;;;4.17;2.83;;;;;;;;;;5051945;28;20220;-30
2024/01/02 01:13:53;;;;;;;6.97;3.37;;;;;;;;;;5042694;28;20208;-34
2024/01/02 01:16:22;;;;;;;8.57;2.97;;;;;;;;;;5045834;28;20210;-34
2024/01/02 01:18:51;;;;;;;9.50;2.83;;;;;;;;;;5047634;28;20232;-33
2024/01/02 01:21:23;;;;;;;6.07;2.67;;;;;;;;;;5048644;28;20240;-34
2024/01/02 01:23:55;;;;;;;6.83;3.20;;;;;;;;;;5051697;28;20217;-34
2024/01/02 01:26:30;;;;;;;5.07;2.90;;;;;;;;;;5052216;28;20668;-38
2024/01/02 01:29:10;;;;;;;6.60;3.13;;;;;;;;;;5050264;28;20205;-35
2024/01/02 01:31:42;;;;;;;6.03;2.80;;;;;;;;;;5051112;28;20271;-36
2024/01/02 01:47:15;;;;;;;7.57;2.57;;;;;;;;;;5020457;28;20328;-27
2024/01/02 02:07:22;;;;;;;3.57;2.23;;;;;;;;;;5013841;28;20222;-27
2024/01/02 02:10:03;;;;;;;5.97;2.73;;;;;;;;;;5011004;28;20206;-26
2024/01/02 02:12:43;;;;;;;4.23;2.67;;;;;;;;;;5009923;28;20286;-26
2024/01/02 02:15:12;;;;;;;4.63;1.87;;;;;;;;;;5024326;28;20223;-26
2024/01/02 02:22:51;;;;;;;4.33;1.87;;;;;;;;;;5072847;28;20705;-28
2024/01/02 02:30:32;;;;;;;1.30;1.07;;;;;;;;;;5035372;28;20230;-28
2024/01/02 02:33:05;;;;;;;1.67;0.87;;;;;;;;;;5035163;28;20310;-27
2024/01/02 02:35:39;;;;;;;2.33;0.90;;;;;;;;;;5035675;28;20329;-27
2024/01/02 02:38:15;;;;;;;2.53;0.80;;;;;;;;;;5032487;28;20207;-26
2024/01/02 02:40:48;;;;;;;3.93;0.80;;;;;;;;;;5033954;28;20280;-29
2024/01/02 02:43:20;;;;;;;4.93;1.37;;;;;;;;;;5032994;28;20210;-27
2024/01/02 02:45:48;;;;;;;0.90;0.63;;;;;;;;;;5037186;28;20261;-26
2024/01/02 02:48:16;;;;;;;1.63;0.80;;;;;;;;;;5028615;28;20234;-28
2024/01/02 02:50:45;;;;;;;1.73;0.70;;;;;;;;;;5034030;28;20297;-26
2024/01/02 02:55:48;;;;;;;1.67;0.90;;;;;;;;;;5013557;28;20223;-34
2024/01/02 02:58:20;;;;;;;0.40;0.40;;;;;;;;;;5015848;28;20212;-35
2024/01/02 03:00:50;;;;;;;3.27;0.80;;;;;;;;;;5007608;28;20325;-36
2024/01/02 03:03:25;;;;;;;3.00;0.90;;;;;;;;;;5009544;28;20219;-34
2024/01/02 03:05:57;;;;;;;1.27;0.70;;;;;;;;;;5008408;28;20241;-34
2024/01/02 03:08:29;;;;;;;1.27;0.70;;;;;;;;;;5015291;28;20257;-32
2024/01/02 03:24:14;;;;;;;5.03;1.07;;;;;;;;;;5051633;28;20283;-28
2024/01/02 03:26:44;;;;;;;1.00;0.90;;;;;;;;;;5046551;28;20213;-28
2024/01/02 03:29:19;;;;;;;1.23;0.83;;;;;;;;;;5039594;28;20202;-26
2024/01/02 03:31:53;;;;;;;2.73;0.93;;;;;;;;;;5050712;28;20205;-26
2024/01/02 03:34:35;;;;;;;1.67;0.90;;;;;;;;;;5041955;28;20240;-28
2024/01/02 03:37:03;;;;;;;1.23;0.80;;;;;;;;;;5038457;28;20252;-28
2024/01/02 03:39:33;;;;;;;1.53;0.43;;;;;;;;;;5044507;28;20229;-26
2024/01/02 03:42:04;;;;;;;3.57;0.60;;;;;;;;;;5042970;28;20222;-28
2024/01/02 03:44:35;;;;;;;0.40;0.40;;;;;;;;;;5033334;28;20261;-27
2024/01/02 03:49:32;;;;;;;0.60;0.60;;;;;;;;;;5022511;28;20227;-26
2024/01/02 03:52:06;;;;;;;0.50;0.47;;;;;;;;;;5031244;28;20318;-27
2024/01/02 03:54:37;;;;;;;1.00;1.00;;;;;;;;;;5034232;28;20252;-28
2024/01/02 03:57:08;;;;;;;0.97;0.53;;;;;;;;;;5033133;28;20210;-26
2024/01/02 03:59:39;;;;;;;1.93;0.60;;;;;;;;;;5034031;28;20233;-29
2024/01/02 04:02:08;;;;;;;2.50;0.83;;;;;;;;;;5032479;28;20301;-28
2024/01/02 04:04:42;;;;;;;0.60;0.60;;;;;;;;;;5031561;28;20317;-28
2024/01/02 04:07:15;;;;;;;0.60;0.60;;;;;;;;;;5026128;28;20301;-29
2024/01/02 04:09:48;;;;;;;0.47;0.47;;;;;;;;;;5033973;28;20210;-27
2024/01/02 04:12:23;;;;;;;1.97;0.80;;;;;;;;;;5034147;28;20233;-27
2024/01/02 04:14:54;;;;;;;1.70;0.70;;;;;;;;;;5029596;28;20280;-26
2024/01/02 04:17:23;;;;;;;2.73;0.70;;;;;;;;;;5034166;28;20271;-28
2024/01/02 04:19:55;;;;;;;1.40;0.70;;;;;;;;;;5023235;28;20238;-27
2024/01/02 04:22:24;;;;;;;1.43;0.70;;;;;;;;;;5034028;28;20213;-29
2024/01/02 04:24:57;;;;;;;1.10;1.00;;;;;;;;;;5033280;28;20290;-29
2024/01/02 04:27:27;;;;;;;1.77;0.60;;;;;;;;;;5033114;28;20230;-27
2024/01/02 04:29:58;;;;;;;1.67;0.70;;;;;;;;;;5032912;28;20252;-30
2024/01/02 04:32:39;;;;;;;0.90;0.57;;;;;;;;;;5024151;28;20420;-29
2024/01/02 04:35:15;;;;;;;0.80;0.50;;;;;;;;;;5027727;28;20229;-28
2024/01/02 04:37:48;;;;;;;0.30;0.30;;;;;;;;;;5031108;28;20304;-27
2024/01/02 04:40:19;;;;;;;0.70;0.53;;;;;;;;;;5031686;28;20265;-29
2024/01/02 04:42:55;;;;;;;1.63;0.60;;;;;;;;;;5026682;28;20315;-29
2024/01/02 04:45:31;;;;;;;1.40;0.47;;;;;;;;;;5027207;28;20244;-28
2024/01/02 04:48:04;;;;;;;0.47;0.40;;;;;;;;;;5032438;28;20309;-28
2024/01/02 04:50:34;;;;;;;0.67;0.50;;;;;;;;;;5027356;28;20202;-29
2024/01/02 04:53:12;;;;;;;0.30;0.30;;;;;;;;;;5017420;28;20234;-28
2024/01/02 04:55:47;;;;;;;1.13;0.57;;;;;;;;;;5030795;28;20241;-29
2024/01/02 04:58:23;;;;;;;0.57;0.57;;;;;;;;;;5031243;28;20206;-26
2024/01/02 05:01:05;;;;;;;0.43;0.43;;;;;;;;;;5028731;28;20218;-27
2024/01/02 05:03:38;;;;;;;0.30;0.30;;;;;;;;;;5020082;28;20214;-27
2024/01/02 05:06:24;;;;;;;0.60;0.60;;;;;;;;;;5023721;28;20357;-28
2024/01/02 05:09:01;;;;;;;0.50;0.47;;;;;;;;;;5031019;28;20198;-26
2024/01/02 05:11:37;;;;;;;1.83;0.70;;;;;;;;;;5028199;28;20206;-26
2024/01/02 05:14:06;;;;;;;0.50;0.50;;;;;;;;;;5031972;28;20203;-29
2024/01/02 05:16:38;;;;;;;0.87;0.50;;;;;;;;;;5032051;28;20210;-27
2024/01/02 05:19:13;;;;;;;0.40;0.30;;;;;;;;;;5026179;28;20217;-26
2024/01/02 05:21:45;;;;;;;1.00;0.70;;;;;;;;;;5025579;28;20261;-28
2024/01/02 05:24:16;;;;;;;0.53;0.53;;;;;;;;;;5032529;28;20236;-29
2024/01/02 05:26:46;;;;;;;0.40;0.40;;;;;;;;;;5032864;28;20206;-26
2024/01/02 05:29:20;;;;;;;0.20;0.20;;;;;;;;;;5030294;28;20206;-28
2024/01/02 05:31:52;;;;;;;0.37;0.37;;;;;;;;;;5027112;28;20190;-27
2024/01/02 05:34:29;;;;;;;1.17;0.50;;;;;;;;;;5031528;28;20254;-26
2024/01/02 05:37:04;;;;;;;0.30;0.30;;;;;;;;;;5031661;28;20268;-27
2024/01/02 05:39:38;;;;;;;0.40;0.40;;;;;;;;;;5024171;28;20206;-28
2024/01/02 05:42:09;;;;;;;0.40;0.40;;;;;;;;;;5030960;28;20228;-26
2024/01/02 05:44:37;;;;;;;1.43;0.50;;;;;;;;;;5028247;28;20775;-29
2024/01/02 05:47:12;;;;;;;0.50;0.50;;;;;;;;;;5025653;28;20238;-27
2024/01/02 05:49:47;;;;;;;1.03;0.43;;;;;;;;;;5034727;28;20202;-26
2024/01/02 05:55:22;;;;;;;1.37;1.27;;;;;;;;;;5022210;28;20729;-28
2024/01/02 05:57:59;;;;;;;0.67;0.67;;;;;;;;;;5027065;28;20352;-29
2024/01/02 06:00:28;;;;;;;0.67;0.57;;;;;;;;;;5031912;28;20762;-28
2024/01/02 06:03:01;;;;;;;0.50;0.50;;;;;;;;;;5031750;28;20206;-27
2024/01/02 06:05:30;;;;;;;0.73;0.73;;;;;;;;;;5031051;28;20248;-26
2024/01/02 06:08:02;;;;;;;0.80;0.63;;;;;;;;;;5031577;28;20206;-28
2024/01/02 06:10:32;;;;;;;0.50;0.50;;;;;;;;;;5031854;28;20210;-27
2024/01/02 06:13:09;;;;;;;0.57;0.57;;;;;;;;;;5028881;28;20266;-27
2024/01/02 06:15:41;;;;;;;0.60;0.50;;;;;;;;;;5026331;28;20230;-26
2024/01/02 06:18:17;;;;;;;0.70;0.67;;;;;;;;;;5031858;28;20206;-27
2024/01/02 06:20:52;;;;;;;0.87;0.87;;;;;;;;;;5029448;28;20298;-27
2024/01/02 06:23:27;;;;;;;0.70;0.70;;;;;;;;;;5024683;28;20217;-28
2024/01/02 06:25:59;;;;;;;1.07;0.50;;;;;;;;;;5030826;28;20230;-27
2024/01/02 06:28:33;;;;;;;0.50;0.50;;;;;;;;;;5031204;28;20290;-27
2024/01/02 06:31:08;;;;;;;0.93;0.60;;;;;;;;;;5027975;28;20214;-27
2024/01/02 06:33:44;;;;;;;0.80;0.80;;;;;;;;;;5019278;28;20209;-28
2024/01/02 06:36:18;;;;;;;0.40;0.40;;;;;;;;;;5022122;28;20205;-26
2024/01/02 06:38:51;;;;;;;0.30;0.30;;;;;;;;;;5026185;28;20198;-29
2024/01/02 06:41:28;;;;;;;1.47;0.47;;;;;;;;;;5030984;28;20253;-27
2024/01/02 06:44:07;;;;;;;0.57;0.50;;;;;;;;;;5030424;28;20206;-28
2024/01/02 06:46:39;;;;;;;0.20;0.20;;;;;;;;;;5031030;28;20301;-29
2024/01/02 06:49:11;;;;;;;0.40;0.40;;;;;;;;;;5028436;28;20214;-27
2024/01/02 06:51:45;;;;;;;0.23;0.23;;;;;;;;;;5029118;28;20202;-29
2024/01/02 06:54:16;;;;;;;0.20;0.20;;;;;;;;;;5034659;28;20250;-26
2024/01/02 06:56:51;;;;;;;0.30;0.30;;;;;;;;;;5035227;28;20210;-27
2024/01/02 06:59:31;;;;;;;1.03;0.40;;;;;;;;;;5022510;28;20202;-27
2024/01/02 07:02:06;;;;;;;0.30;0.30;;;;;;;;;;5034548;28;20329;-28
2024/01/02 07:04:36;;;;;;;0.30;0.30;;;;;;;;;;5034172;28;20217;-27
2024/01/02 07:07:10;;;;;;;0.23;0.23;;;;;;;;;;5028113;28;20226;-27
2024/01/02 07:17:25;;;;;;;0.20;0.20;;;;;;;;;;5030975;28;20223;-36
2024/01/02 07:19:55;;;;;;;0.20;0.20;;;;;;;;;;5035185;28;20294;-38
2024/01/02 07:22:27;;;;;;;0.20;0.20;;;;;;;;;;5035164;28;20222;-37
2024/01/02 07:25:02;;;;;;;0.10;0.10;;;;;;;;;;5031079;28;20230;-37
2024/01/02 07:27:33;;;;;;;0.20;0.20;;;;;;;;;;5034235;28;20299;-31
2024/01/02 07:30:20;;;;;;;0.30;0.30;;;;;;;;;;5035658;28;20210;-36
2024/01/02 07:32:52;;;;;;;0.40;0.20;;;;;;;;;;5033821;28;20230;-35
2024/01/02 07:35:21;;;;;;;0.10;0.10;;;;;;;;;;5027534;28;20264;-36
2024/01/02 07:37:53;;;;;;;0.77;0.20;;;;;;;;;;5034210;28;20298;-32
2024/01/02 07:40:22;;;;;;;0.10;0.10;;;;;;;;;;5027435;28;20218;-35
2024/01/02 07:42:53;;;;;;;0.23;0.20;;;;;;;;;;5040959;28;20293;-35
2024/01/02 07:45:22;;;;;;;0.30;0.30;;;;;;;;;;5032863;28;20218;-33
2024/01/02 07:47:54;;;;;;;0.33;0.10;;;;;;;;;;5016798;28;20286;-30
2024/01/02 07:50:23;;;;;;;0.20;0.20;;;;;;;;;;5032073;28;20207;-33
2024/01/02 07:52:56;;;;;;;0.30;0.20;;;;;;;;;;5027217;28;20206;-33
2024/01/02 07:55:25;;;;;;;0.20;0.20;;;;;;;;;;5034566;28;20696;-33
2024/01/02 07:57:59;;;;;;;0.10;0.10;;;;;;;;;;5034396;28;20215;-34
2024/01/02 08:00:27;;;;;;;0.20;0.20;;;;;;;;;;5027155;28;20296;-35
2024/01/02 08:03:01;;;;;;;0.17;0.17;;;;;;;;;;5034219;28;20253;-33
2024/01/02 08:05:32;;;;;;;0.27;0.20;;;;;;;;;;5033459;28;20265;-30
2024/01/02 08:08:02;;;;;;;0.10;0.10;;;;;;;;;;5017496;28;20222;-35
2024/01/02 08:10:32;;;;;;;0.20;0.20;;;;;;;;;;5032233;28;20265;-36
2024/01/02 08:13:03;;;;;;;0.10;0.10;;;;;;;;;;5034366;28;20203;-32
2024/01/02 08:15:31;;;;;;;0.10;0.10;;;;;;;;;;5034137;28;20222;-34
2024/01/02 08:18:08;;;;;;;0.13;0.13;;;;;;;;;;5033982;28;20237;-35
2024/01/02 08:20:39;;;;;;;0.20;0.20;;;;;;;;;;5029988;28;20233;-32
2024/01/02 08:23:12;;;;;;;0.20;0.20;;;;;;;;;;5033153;28;20206;-33
2024/01/02 08:25:41;;;;;;;0.13;0.13;;;;;;;;;;5033359;28;20274;-36
2024/01/02 08:28:12;;;;;;;0.10;0.10;;;;;;;;;;5031417;28;20323;-35
2024/01/02 08:30:44;;;;;;;0.30;0.30;;;;;;;;;;5028624;28;20213;-36
2024/01/02 08:33:20;;;;;;;0.10;0.10;;;;;;;;;;5024524;28;20262;-33
2024/01/02 08:35:53;;;;;;;0.20;0.20;;;;;;;;;;5033072;28;20222;-33
2024/01/02 08:38:27;;;;;;;0.07;0.07;;;;;;;;;;5023423;28;20214;-35
2024/01/02 08:40:57;;;;;;;0.30;0.20;;;;;;;;;;5030475;28;20226;-30
2024/01/02 08:43:26;;;;;;;0.10;0.10;;;;;;;;;;5032253;28;20203;-35
2024/01/02 08:46:02;;;;;;;0.10;0.10;;;;;;;;;;5033447;28;20234;-33
2024/01/02 08:48:34;;;;;;;0.40;0.20;;;;;;;;;;5029557;28;20222;-36
2024/01/02 08:51:04;;;;;;;0.20;0.20;;;;;;;;;;5027603;28;20200;-32
2024/01/02 08:53:36;;;;;;;0.10;0.10;;;;;;;;;;5026572;28;20260;-34
2024/01/02 08:56:05;;;;;;;0.43;0.30;;;;;;;;;;5032750;28;20227;-33
2024/01/02 08:58:38;;;;;;;0.20;0.20;;;;;;;;;;5031395;28;20199;-32
2024/01/02 09:01:18;;;;;;;0.10;0.10;;;;;;;;;;5030945;28;20226;-32
2024/01/02 09:03:56;;;;;;;0.13;0.13;;;;;;;;;;5032986;28;20253;-35
2024/01/02 09:06:24;;;;;;;0.20;0.20;;;;;;;;;;5032647;28;20206;-34
2024/01/02 09:08:57;;;;;;;0.20;0.20;;;;;;;;;;5031181;28;20206;-34
2024/01/02 09:11:27;;;;;;;0.10;0.10;;;;;;;;;;5033015;28;20202;-32
2024/01/02 09:14:03;;;;;;;0.10;0.10;;;;;;;;;;5032387;28;20206;-32
2024/01/02 09:16:43;;;;;;;0.10;0.10;;;;;;;;;;5030587;28;20206;-32
2024/01/02 09:19:17;;;;;;;0.20;0.20;;;;;;;;;;5028448;28;20325;-33
2024/01/02 09:21:47;;;;;;;0.20;0.20;;;;;;;;;;5027330;28;20223;-35
2024/01/02 09:24:18;;;;;;;0.20;0.20;;;;;;;;;;5028597;28;20234;-33
2024/01/02 09:26:50;;;;;;;0.20;0.20;;;;;;;;;;5032563;28;20210;-36
2024/01/02 09:29:23;;;;;;;0.10;0.10;;;;;;;;;;5025394;28;20234;-33
2024/01/02 09:31:58;;;;;;;0.17;0.17;;;;;;;;;;5032940;28;20289;-33
2024/01/02 09:34:30;;;;;;;0.50;0.30;;;;;;;;;;5025182;28;20230;-32
2024/01/02 09:37:01;;;;;;;1.03;0.30;;;;;;;;;;5032669;28;20664;-35
2024/01/02 09:39:33;;;;;;;0.20;0.20;;;;;;;;;;5029946;28;20203;-34
2024/01/02 09:42:16;;;;;;;0.20;0.20;;;;;;;;;;5032392;28;20295;-34
2024/01/02 09:44:54;;;;;;;0.27;0.10;;;;;;;;;;5033018;28;20277;-34
2024/01/02 09:47:29;;;;;;;0.10;0.10;;;;;;;;;;5032025;28;20214;-37
2024/01/02 09:50:05;;;;;;;0.20;0.20;;;;;;;;;;5032604;28;20421;-32
2024/01/02 09:52:45;;;;;;;0.20;0.20;;;;;;;;;;5021412;28;20222;-35
2024/01/02 09:55:21;;;;;;;0.20;0.20;;;;;;;;;;5032891;28;20237;-35
2024/01/02 09:58:05;;;;;;;0.93;0.20;;;;;;;;;;5032981;28;20293;-37
2024/01/02 10:00:41;;;;;;;0.10;0.10;;;;;;;;;;5022462;28;20210;-36
2024/01/02 10:03:16;;;;;;;0.30;0.30;;;;;;;;;;5030076;28;20230;-31
2024/01/02 10:05:55;;;;;;;0.23;0.20;;;;;;;;;;5032765;28;20280;-36
2024/01/02 10:08:40;;;;;;;0.37;0.30;;;;;;;;;;5022092;28;20238;-33
2024/01/02 10:11:16;;;;;;;0.20;0.20;;;;;;;;;;5024762;28;20264;-32
2024/01/02 10:13:49;;;;;;;0.40;0.40;;;;;;;;;;5031985;28;20209;-30
2024/01/02 10:16:33;;;;;;;0.37;0.20;;;;;;;;;;5027374;28;20241;-32
2024/01/02 10:19:06;;;;;;;0.20;0.20;;;;;;;;;;5024135;28;20228;-38
2024/01/02 10:21:49;;;;;;;0.37;0.37;;;;;;;;;;5026011;28;20227;-33
2024/01/02 10:24:27;;;;;;;0.20;0.20;;;;;;;;;;5029203;28;20238;-32
2024/01/02 10:27:06;;;;;;;0.20;0.20;;;;;;;;;;5032540;28;20272;-34
2024/01/02 10:29:42;;;;;;;0.00;0.00;;;;;;;;;;5021322;28;20209;-34
2024/01/02 10:32:15;;;;;;;0.07;0.07;;;;;;;;;;5042102;28;20289;-34
2024/01/02 10:34:50;;;;;;;0.30;0.30;;;;;;;;;;5035455;28;20238;-30
2024/01/02 10:37:22;;;;;;;0.10;0.10;;;;;;;;;;5036111;28;20206;-34
2024/01/02 10:39:56;;;;;;;0.20;0.10;;;;;;;;;;5036635;28;20202;-31
2024/01/02 10:42:33;;;;;;;0.23;0.20;;;;;;;;;;5035588;28;20218;-34
2024/01/02 10:45:09;;;;;;;0.63;0.23;;;;;;;;;;5036364;28;20214;-31
2024/01/02 10:47:45;;;;;;;0.93;0.17;;;;;;;;;;5035961;28;20229;-37
2024/01/02 10:50:20;;;;;;;0.20;0.20;;;;;;;;;;5026343;28;20209;-33
2024/01/02 10:53:06;;;;;;;0.20;0.20;;;;;;;;;;5026335;28;20624;-33
2024/01/02 10:55:42;;;;;;;0.20;0.07;;;;;;;;;;5028124;28;20317;-35
2024/01/02 10:58:17;;;;;;;0.10;0.10;;;;;;;;;;5035765;28;20683;-36
2024/01/02 11:00:56;;;;;;;0.30;0.30;;;;;;;;;;5025335;28;20242;-34
2024/01/02 11:03:29;;;;;;;0.30;0.30;;;;;;;;;;5023325;28;20229;-33
2024/01/02 11:06:06;;;;;;;0.53;0.30;;;;;;;;;;5035450;28;20241;-33
2024/01/02 11:08:51;;;;;;;0.20;0.20;;;;;;;;;;5028254;28;20206;-34
2024/01/02 11:11:21;;;;;;;0.20;0.20;;;;;;;;;;5030684;28;20207;-33
2024/01/02 11:13:52;;;;;;;0.30;0.30;;;;;;;;;;5024365;28;20226;-34
2024/01/02 11:16:20;;;;;;;0.30;0.30;;;;;;;;;;5034804;28;20211;-36
2024/01/02 11:18:51;;;;;;;0.17;0.17;;;;;;;;;;5034598;28;20216;-35
2024/01/02 11:21:24;;;;;;;0.30;0.30;;;;;;;;;;5019204;28;20219;-33
2024/01/02 11:23:55;;;;;;;0.20;0.20;;;;;;;;;;5029691;28;20202;-36
2024/01/02 11:26:27;;;;;;;0.30;0.30;;;;;;;;;;5034257;28;20237;-32
2024/01/02 11:28:57;;;;;;;0.30;0.30;;;;;;;;;;5033948;28;20260;-32
2024/01/02 11:31:31;;;;;;;0.30;0.30;;;;;;;;;;5029293;28;20211;-30
2024/01/02 11:34:28;;;;;;;0.20;0.20;;;;;;;;;;5034197;28;20297;-35
2024/01/02 11:37:14;;;;;;;1.60;0.30;;;;;;;;;;5034733;28;20211;-37
2024/01/02 11:39:51;;;;;;;0.30;0.30;;;;;;;;;;5028217;28;20203;-33
2024/01/02 11:42:24;;;;;;;0.20;0.20;;;;;;;;;;5032314;28;20237;-33
2024/01/02 11:45:04;;;;;;;0.20;0.20;;;;;;;;;;5034674;28;20257;-32
2024/01/02 11:47:35;;;;;;;0.27;0.27;;;;;;;;;;5026857;28;20242;-33
2024/01/02 11:50:04;;;;;;;0.13;0.13;;;;;;;;;;5037373;28;20242;-35
2024/01/02 11:52:44;;;;;;;0.23;0.20;;;;;;;;;;5031329;28;20214;-28
2024/01/02 11:55:22;;;;;;;0.30;0.30;;;;;;;;;;5015785;28;20225;-34
2024/01/02 11:57:56;;;;;;;0.30;0.30;;;;;;;;;;5028534;28;20230;-31
2024/01/02 12:00:26;;;;;;;0.30;0.30;;;;;;;;;;5034447;28;20204;-37
2024/01/02 12:02:59;;;;;;;0.23;0.23;;;;;;;;;;5028766;28;20238;-33
2024/01/02 12:05:42;;;;;;;0.30;0.30;;;;;;;;;;5034254;28;20269;-35
2024/01/02 12:08:14;;;;;;;0.20;0.20;;;;;;;;;;5033747;28;20297;-33
2024/01/02 12:10:52;;;;;;;0.20;0.20;;;;;;;;;;5031013;28;20199;-35
2024/01/02 12:13:28;;;;;;;0.30;0.30;;;;;;;;;;5033123;28;20256;-33
2024/01/02 12:15:57;;;;;;;0.30;0.30;;;;;;;;;;5033670;28;20237;-34
2024/01/02 12:18:26;;;;;;;0.97;0.30;;;;;;;;;;5032038;28;20215;-36
2024/01/02 12:21:00;;;;;;;0.10;0.10;;;;;;;;;;5028334;28;20221;-33
2024/01/02 12:23:36;;;;;;;0.70;0.40;;;;;;;;;;5033591;28;20234;-37
2024/01/02 12:26:10;;;;;;;0.27;0.27;;;;;;;;;;5027039;28;20235;-32
2024/01/02 12:28:39;;;;;;;0.30;0.23;;;;;;;;;;5027242;28;20207;-34
2024/01/02 12:31:18;;;;;;;0.30;0.30;;;;;;;;;;5033567;28;20226;-33
2024/01/02 12:33:49;;;;;;;0.30;0.30;;;;;;;;;;5028148;28;20282;-34
2024/01/02 12:36:26;;;;;;;0.83;0.47;;;;;;;;;;5034695;28;20210;-37
2024/01/02 12:44:05;;;;;;;0.27;0.20;;;;;;;;;;5045373;28;20233;-34
2024/01/02 12:49:07;;;;;;;0.30;0.20;;;;;;;;;;5028657;28;20250;-32
2024/01/02 12:51:38;;;;;;;0.30;0.30;;;;;;;;;;5032769;28;20202;-34
2024/01/02 12:54:08;;;;;;;0.30;0.30;;;;;;;;;;5032891;28;20203;-32
2024/01/02 12:56:42;;;;;;;0.20;0.20;;;;;;;;;;5031876;28;20376;-29
2024/01/02 12:59:16;;;;;;;0.20;0.20;;;;;;;;;;5024024;28;20711;-35
2024/01/02 13:04:35;;;;;;;0.20;0.20;;;;;;;;;;5026565;28;20303;-37
2024/01/02 13:07:08;;;;;;;0.20;0.20;;;;;;;;;;5033266;28;20302;-36
2024/01/02 13:09:45;;;;;;;0.53;0.30;;;;;;;;;;5030033;28;20294;-34
2024/01/02 13:12:23;;;;;;;0.30;0.20;;;;;;;;;;5028663;28;20206;-37
2024/01/02 13:14:55;;;;;;;0.20;0.20;;;;;;;;;;5032598;28;20225;-37
2024/01/02 13:17:38;;;;;;;0.30;0.30;;;;;;;;;;5033317;28;20211;-33
2024/01/02 13:20:12;;;;;;;0.20;0.20;;;;;;;;;;5027311;28;20214;-34
2024/01/02 13:22:43;;;;;;;0.30;0.30;;;;;;;;;;5032656;28;20281;-35
2024/01/02 13:25:17;;;;;;;0.20;0.20;;;;;;;;;;5032782;28;20230;-34
2024/01/02 13:27:48;;;;;;;0.40;0.40;;;;;;;;;;5022359;28;20221;-35
2024/01/02 13:30:19;;;;;;;0.30;0.30;;;;;;;;;;5028606;28;20210;-31
2024/01/02 13:32:55;;;;;;;0.73;0.27;;;;;;;;;;5022815;28;20202;-34
2024/01/02 13:35:26;;;;;;;0.40;0.23;;;;;;;;;;5024422;28;20289;-36
2024/01/02 13:40:27;;;;;;;0.20;0.20;;;;;;;;;;5027864;28;20219;-36
2024/01/02 13:43:01;;;;;;;0.20;0.20;;;;;;;;;;5027417;28;20229;-32
2024/01/02 13:45:38;;;;;;;0.23;0.20;;;;;;;;;;5030105;28;20228;-35
2024/01/02 13:48:20;;;;;;;0.27;0.27;;;;;;;;;;5018607;28;20485;-32
2024/01/02 13:50:50;;;;;;;0.20;0.20;;;;;;;;;;5025865;28;20209;-31
2024/01/02 13:53:24;;;;;;;0.30;0.30;;;;;;;;;;5032307;28;20265;-33
2024/01/02 13:55:57;;;;;;;0.20;0.20;;;;;;;;;;5021653;28;20308;-32
2024/01/02 13:58:28;;;;;;;0.20;0.20;;;;;;;;;;5032252;28;20312;-33
2024/01/02 14:00:58;;;;;;;0.30;0.30;;;;;;;;;;5032428;28;20210;-35
2024/01/02 14:03:28;;;;;;;0.33;0.33;;;;;;;;;;5025501;28;20237;-35
2024/01/02 14:05:58;;;;;;;0.10;0.10;;;;;;;;;;5037016;28;20280;-34
2024/01/02 14:08:33;;;;;;;0.20;0.20;;;;;;;;;;5035965;28;20206;-33
2024/01/02 14:11:08;;;;;;;0.20;0.20;;;;;;;;;;5031987;28;20213;-40
2024/01/02 14:13:41;;;;;;;0.10;0.10;;;;;;;;;;5034357;28;20256;-35
2024/01/02 14:16:18;;;;;;;0.20;0.20;;;;;;;;;;5035001;28;20235;-36
2024/01/02 14:24:08;;;;;;;0.20;0.20;;;;;;;;;;5032150;28;20222;-28
2024/01/02 14:26:43;;;;;;;0.30;0.30;;;;;;;;;;5006761;28;20211;-28
2024/01/02 14:29:18;;;;;;;0.10;0.10;;;;;;;;;;5016579;28;20302;-29
2024/01/02 14:32:06;;;;;;;1.60;0.40;;;;;;;;;;5005931;28;20206;-29
2024/01/02 14:34:43;;;;;;;0.20;0.20;;;;;;;;;;5013024;28;20219;-27
2024/01/02 14:37:18;;;;;;;0.30;0.30;;;;;;;;;;5016520;28;20207;-28
2024/01/02 14:40:00;;;;;;;0.20;0.20;;;;;;;;;;5007632;28;20218;-26
2024/01/02 14:43:00;;;;;;;0.20;0.20;;;;;;;;;;5015263;28;20242;-30
2024/01/02 14:45:44;;;;;;;0.20;0.20;;;;;;;;;;4936254;29;20264;-28
2024/01/02 14:48:23;;;;;;;0.20;0.20;;;;;;;;;;5008138;28;20270;-29
2024/01/02 14:51:05;;;;;;;0.20;0.20;;;;;;;;;;5009159;28;20203;-29
2024/01/02 14:53:41;;;;;;;0.30;0.30;;;;;;;;;;5011765;28;20238;-26
2024/01/02 14:56:35;;;;;;;0.23;0.10;;;;;;;;;;5013687;28;20317;-29
2024/01/02 15:04:43;;;;;;;0.20;0.20;;;;;;;;;;5051323;28;20241;-33
2024/01/02 15:07:50;;;;;;;0.20;0.20;;;;;;;;;;5016747;28;20293;-35
2024/01/02 15:10:28;;;;;;;0.30;0.30;;;;;;;;;;5035381;28;20210;-36
2024/01/02 15:16:26;;;;;;;0.30;0.30;;;;;;;;;;5040679;28;20580;-37
2024/01/02 15:19:20;;;;;;;1.10;0.70;;;;;;;;;;4980773;28;20265;-38
2024/01/02 15:22:13;;;;;;;0.40;0.40;;;;;;;;;;5035731;28;20269;-35
2024/01/02 15:25:00;;;;;;;0.70;0.23;;;;;;;;;;5043979;28;20291;-37
2024/01/02 15:27:52;;;;;;;0.20;0.20;;;;;;;;;;5034597;28;20225;-36
2024/01/02 15:30:19;;;;;;;0.43;0.40;;;;;;;;;;5048438;28;20253;-38
2024/01/02 15:32:48;;;;;;;0.67;0.63;;;;;;;;;;5043035;28;20240;-30
2024/01/02 15:35:16;;;;;;;0.30;0.30;;;;;;;;;;5053220;28;20233;-34
2024/01/02 15:37:51;;;;;;;0.30;0.30;;;;;;;;;;5052524;28;20202;-37
2024/01/02 15:40:20;;;;;;;1.07;0.40;;;;;;;;;;5035332;28;20213;-32
2024/01/02 15:42:51;;;;;;;0.20;0.20;;;;;;;;;;5043760;28;20289;-37
2024/01/02 15:45:21;;;;;;;0.43;0.30;;;;;;;;;;5041544;28;20272;-37
2024/01/02 15:47:57;;;;;;;0.30;0.30;;;;;;;;;;5043143;28;20289;-40
2024/01/02 15:50:26;;;;;;;0.30;0.30;;;;;;;;;;5037116;28;20293;-36
2024/01/02 15:52:56;;;;;;;0.30;0.30;;;;;;;;;;5033335;28;20210;-33
2024/01/02 15:55:26;;;;;;;0.57;0.30;;;;;;;;;;5041570;28;20397;-37
2024/01/02 15:57:55;;;;;;;0.27;0.27;;;;;;;;;;5043210;28;20485;-32
2024/01/02 16:00:23;;;;;;;2.43;0.40;;;;;;;;;;5044835;28;20210;-36
2024/01/02 16:03:09;;;;;;;1.20;0.50;;;;;;;;;;5044403;28;20312;-40
2024/01/02 16:05:45;;;;;;;0.20;0.20;;;;;;;;;;5045154;28;20222;-39
2024/01/02 16:08:19;;;;;;;0.50;0.50;;;;;;;;;;5034961;28;20202;-34
2024/01/02 16:11:04;;;;;;;0.30;0.30;;;;;;;;;;5045573;28;20208;-37
2024/01/02 16:13:46;;;;;;;0.37;0.37;;;;;;;;;;5035172;28;20202;-34
2024/01/02 16:16:24;;;;;;;0.37;0.37;;;;;;;;;;5038631;28;20320;-32
2024/01/02 16:19:13;;;;;;;0.40;0.40;;;;;;;;;;5035521;28;20198;-35
2024/01/02 16:21:48;;;;;;;0.70;0.30;;;;;;;;;;5034154;28;20214;-31
2024/01/02 16:24:27;;;;;;;0.70;0.70;;;;;;;;;;5038322;28;20234;-35
2024/01/02 16:27:12;;;;;;;0.30;0.30;;;;;;;;;;5038220;28;20229;-33
2024/01/02 16:29:49;;;;;;;0.60;0.60;;;;;;;;;;5030138;28;20214;-36
2024/01/02 16:32:24;;;;;;;0.40;0.40;;;;;;;;;;5032326;28;20206;-32
2024/01/02 16:35:09;;;;;;;1.50;0.47;;;;;;;;;;5036161;28;20308;-35
2024/01/02 16:37:54;;;;;;;0.40;0.40;;;;;;;;;;5040143;28;20270;-33
2024/01/02 16:40:36;;;;;;;0.40;0.40;;;;;;;;;;5043150;28;20223;-37
2024/01/02 16:43:06;;;;;;;0.60;0.40;;;;;;;;;;5040198;28;20218;-33
2024/01/02 16:45:35;;;;;;;0.63;0.40;;;;;;;;;;5030761;28;20221;-39
2024/01/02 16:48:03;;;;;;;0.33;0.33;;;;;;;;;;5040969;28;20229;-32
2024/01/02 16:50:32;;;;;;;0.23;0.23;;;;;;;;;;5037391;28;20217;-32
2024/01/02 16:53:01;;;;;;;0.30;0.30;;;;;;;;;;5037147;28;20216;-33
2024/01/02 16:55:29;;;;;;;0.50;0.20;;;;;;;;;;5033451;28;20225;-37
2024/01/02 16:57:56;;;;;;;0.57;0.33;;;;;;;;;;5033257;28;20220;-34
2024/01/02 17:00:23;;;;;;;0.30;0.30;;;;;;;;;;5033740;28;20206;-34
2024/01/02 17:02:56;;;;;;;0.40;0.40;;;;;;;;;;5030800;28;20244;-32
2024/01/02 17:05:23;;;;;;;0.30;0.30;;;;;;;;;;5030514;28;20227;-33